Terminal Aerodrome Forecast
Issued by NWS

Home | Current Version | Previous Version | Text Only | Print | Product List | Glossary On
Versions: 1 2 3 4 5 6 7 8 9 10 11 12 13
000
FTUS42 TJSJ 312300
TAFJMZ
TAF
TJMZ 312336Z 0100/0124 07006KT P6SM SCT050
     FM011500 28008KT P6SM SCT040 PROB30 0116/0120 2SM SHRA BKN030=

USA.gov is the U.S. government's official web portal to all federal, state and local government web resources and services.